Relevés horaires Florennes (Belgique)


Relevés horaires à Florennes - Mardi 30 Mars 2021
Heure UTC1 Température [°C] Vent [km/h] Hum. [%] Pres.4 [hPa] Visi. [Km] Nébu. [octa] Préc.5 [mm] Cond.
2m. Res. Ros. Dir.2 Vit. Moy. Raf.3
23:00 15.2 15.2 -0.9 NNO 1.9 -- 3.7 33 1025.7(-0.9/3h) 20 -- -- --
22:00 16.3 16.3 -1.4 NNO 1.9 -- 3.7 30 1025.9(-0.5/3h) 20 -- -- --
21:00 13.9 13.9 -0.9 NNO 1.9 -- 3.7 36 1026.5(-0.4/3h) 20 1/8 -- --
20:00 15.6 15.6 -0.1 NNO 1.9 -- 1.9 34 1026.5(-0.1/3h) 20 1/8 -- --
19:00 16.8 16.8 0.2 NNO 1.9 -- 3.7 32 1026.5(-0.3/3h) 20 1/8 -- --
18:00 20.7 20.7 -0.8 SO 3.7 -- 9.3 24 1026.2(-0.7/3h) 20 1/8 -- --
17:00 22.4 22.4 -4.0 S 3.7 -- 7.4 17 1026(-1.5/3h) 20 1/8 -- --
16:00 22.2 22.2 -0.6 NNO 1.9 -- 9.3 22 1026.2(-2.2/3h) 20 1/8 -- --
15:00 22.7 22.7 -1.9 SSE 5.6 -- 9.3 19 1026.7(-2.5/3h) 20 1/8 -- --
14:00 22.2 22.2 0.1 SE 3.7 -- 7.4 23 1027.5(-2.1/3h) 20 1/8 -- --
13:00 21.8 21.8 -0.1 SSE 3.7 -- 9.3 23 1028.5(-1.5/3h) 20 1/8 -- --
12:00 20.6 20.6 -0.3 NNO 3.7 -- 9.3 25 1029.5(-1.0/3h) 20 1/8 -- --
11:00 19.6 19.6 1.4 SSE 5.6 -- 9.3 30 1030.2(-0.3/3h) 20 2/8 -- --
10:00 18.6 18.6 2.5 SSE 5.6 -- 7.4 34 1030.5(0.1/3h) 20 2/8 -- --
09:00 15.5 15.5 4.7 NNO 1.9 -- 5.6 49 1031(0.4/3h) 20 1/8 -- --
08:00 11.9 11.9 2.5 E 3.7 -- 5.6 52 1031.4(0.7/3h) 20 1/8 -- --
07:00 10.8 10.8 2.1 NNO 1.9 -- 3.7 55 1031.4(0.4/3h) 20 1/8 -- --
06:00 9.0 9.0 -0.1 NNO 1.9 -- 5.6 53 1031.4(0.1/3h) 20 1/8 -- --
05:00 8.5 8.5 -0.2 NNO 1.9 -- 3.7 54 1031(-0.4/3h) 20 1/8 -- --
04:00 9.6 9.6 -0.1 NNO 1.9 -- 3.7 51 1031(-0.7/3h) 20 -- -- --
03:00 9.4 9.4 -- NNO 1.9 -- 5.6 -- 1031(-0.6/3h) 18 -- -- --
02:00 5.9 5.9 0.6 NNO 1.9 -- 5.6 69 1031.9(-0.4/3h) 19 -- -- --
01:00 7.0 7.0 0.5 NNO 1.9 -- 3.7 63 1032(0.0/3h) 16 -- -- --
00:00 9.1 9.1 0.9 NNO 1.9 -- 5.6 56 1031.9(-0.1/3h) 17 -- -- --

1 Coordinated Universal Time. Actuellement il est 17:00 locale et 16:00 UTC.

2 Le vent souffle depuis la direction indiquée vers la direction oposée.

3 Les rafales max. sont disponible 40 min après l'heure du relevé.

4 Pour les stations d'altitude (plus de 600m) le géopotentiel du niveau le plus proche de la pression obligatoire est indiqué.

5 Les stations disposant d'un diffuseur peuvent indiquer "trace". Cela signifie que des précipitations ont touchés le sol mais que la quantité est inférieure à 0.1 mm.

Récapitulatif de la journée
Température [°C] Vent [km/h] Ensoleillement4 [h] Precipitations totale5 [mm] Pression [Hpa]
Min1 Max.2 Moy.3 Max. Min Max.
5.7 23.2 0 9.3 0 h 0 min 0 1025.7 1032.0

1 Température minimale relevée entre 18:00 UTC la veille et 18:00 UTC le jour donné.

2 Température maximale relevée entre 06:00 UTC le jour donné et 06:00 UTC le lendemain.

3 Vent moyen de la journée basé sur les relevés horaires.

4 Ensoleillement en heures relevé entre 06:00 UTC la veille et 06:00 UTC le jour donné.

5 Précipitations totales tombées entre 06:00 UTC la jour donné et 06:00 UTC le lendemain.

Graphiques horaires